createdAt,value
2022-08-19T00:01:57.186Z,1.67
2022-08-19T00:04:29.937Z,2.00
2022-08-19T00:06:57.586Z,2.53
2022-08-19T00:09:25.343Z,2.10
2022-08-19T00:11:53.175Z,2.10
2022-08-19T00:14:22.056Z,1.97
2022-08-19T00:16:49.572Z,2.20
2022-08-19T00:19:17.393Z,1.93
2022-08-19T00:21:44.730Z,2.10
2022-08-19T00:24:13.184Z,2.40
2022-08-19T00:26:40.651Z,2.13
2022-08-19T00:29:08.607Z,2.20
2022-08-19T00:31:35.893Z,2.10
2022-08-19T00:34:03.961Z,2.20
2022-08-19T00:36:31.484Z,2.13
2022-08-19T00:38:59.676Z,1.87
2022-08-19T00:41:26.916Z,2.33
2022-08-19T00:44:14.894Z,1.90
2022-08-19T00:46:43.568Z,2.00
2022-08-19T00:49:17.768Z,2.13
2022-08-19T00:51:46.335Z,2.10
2022-08-19T00:54:13.684Z,2.37
2022-08-19T00:56:41.681Z,2.10
2022-08-19T00:59:10.111Z,2.13
2022-08-19T01:01:42.052Z,2.10
2022-08-19T01:04:09.659Z,2.30
2022-08-19T01:06:40.928Z,2.23
2022-08-19T01:09:08.343Z,2.10
2022-08-19T01:11:39.828Z,2.40
2022-08-19T01:14:07.297Z,2.30
2022-08-19T01:16:34.417Z,2.20
2022-08-19T01:19:01.598Z,2.07
2022-08-19T01:21:32.099Z,2.03
2022-08-19T01:23:59.610Z,2.10
2022-08-19T01:26:27.049Z,1.90
2022-08-19T01:28:57.432Z,2.50
2022-08-19T01:31:32.547Z,3.93
2022-08-19T01:34:00.608Z,1.93
2022-08-19T01:36:39.445Z,2.23
2022-08-19T01:39:10.167Z,3.40
2022-08-19T01:41:37.434Z,2.40
2022-08-19T01:44:17.591Z,2.20
2022-08-19T01:46:46.718Z,1.93
2022-08-19T01:49:13.890Z,2.57
2022-08-19T01:51:41.027Z,2.30
2022-08-19T01:54:11.808Z,2.53
2022-08-19T01:56:39.854Z,2.33
2022-08-19T01:59:11.580Z,2.77
2022-08-19T02:01:38.741Z,2.33
2022-08-19T02:04:06.861Z,2.60
2022-08-19T02:06:34.295Z,2.23
2022-08-19T02:09:01.446Z,2.53
2022-08-19T02:11:32.509Z,2.13
2022-08-19T02:14:00.233Z,2.47
2022-08-19T02:16:27.490Z,2.40
2022-08-19T02:18:54.688Z,2.93
2022-08-19T02:21:23.014Z,2.57
2022-08-19T02:23:50.668Z,2.93
2022-08-19T02:26:18.443Z,3.50
2022-08-19T02:28:45.602Z,2.80
2022-08-19T02:31:14.120Z,2.70
2022-08-19T02:33:41.644Z,2.70
2022-08-19T02:36:09.559Z,2.53
2022-08-19T02:38:38.172Z,2.70
2022-08-19T02:41:08.246Z,2.53
2022-08-19T02:43:39.961Z,2.60
2022-08-19T02:46:19.037Z,2.93
2022-08-19T02:48:46.593Z,2.27
2022-08-19T02:51:20.492Z,2.93
2022-08-19T02:53:47.821Z,2.53
2022-08-19T02:56:15.317Z,2.83
2022-08-19T02:58:42.588Z,2.83
2022-08-19T03:01:10.472Z,2.50
2022-08-19T03:03:38.340Z,2.83
2022-08-19T03:06:14.070Z,2.67
2022-08-19T03:08:45.136Z,2.80
2022-08-19T03:11:26.374Z,2.53
2022-08-19T03:13:54.641Z,2.73
2022-08-19T03:16:23.045Z,2.60
2022-08-19T03:18:51.167Z,3.20
2022-08-19T03:21:23.134Z,3.10
2022-08-19T03:23:50.518Z,2.90
2022-08-19T03:26:18.112Z,3.20
2022-08-19T03:28:51.172Z,3.00
2022-08-19T03:31:43.282Z,3.20
2022-08-19T03:34:08.305Z,3.10
2022-08-19T03:36:35.411Z,2.60
2022-08-19T03:39:02.751Z,3.20
2022-08-19T03:41:43.337Z,2.30
2022-08-19T03:44:21.717Z,3.10
2022-08-19T03:46:53.677Z,3.47
2022-08-19T03:49:21.152Z,3.77
2022-08-19T03:51:54.929Z,3.47
2022-08-19T03:54:24.069Z,3.83
2022-08-19T03:56:52.068Z,3.40
2022-08-19T03:59:23.736Z,3.70
2022-08-19T04:01:50.984Z,3.43
2022-08-19T04:04:18.219Z,3.50
2022-08-19T04:06:48.850Z,4.73
2022-08-19T04:09:16.004Z,3.87
2022-08-19T04:11:56.091Z,4.07
2022-08-19T04:14:26.238Z,3.83
2022-08-19T04:16:53.549Z,4.10
2022-08-19T04:19:21.089Z,3.83
2022-08-19T04:21:50.170Z,4.50
2022-08-19T04:24:17.612Z,4.37
2022-08-19T04:26:45.023Z,3.90
2022-08-19T04:29:17.678Z,4.00
2022-08-19T04:31:46.268Z,4.37
2022-08-19T04:34:14.927Z,4.63
2022-08-19T04:36:42.927Z,5.87
2022-08-19T04:39:17.929Z,6.57
2022-08-19T04:42:04.366Z,10.30
2022-08-19T04:44:35.802Z,11.97
2022-08-19T04:47:10.870Z,15.93
2022-08-19T04:49:38.855Z,20.60
2022-08-19T04:52:06.073Z,18.03
2022-08-19T04:54:38.175Z,17.70
2022-08-19T04:57:08.550Z,18.87
2022-08-19T04:59:36.523Z,21.43
2022-08-19T05:02:04.638Z,21.73
2022-08-19T05:04:33.268Z,24.43
2022-08-19T05:07:01.880Z,26.07
2022-08-19T05:09:36.138Z,24.57
2022-08-19T05:12:17.736Z,26.33
2022-08-19T05:14:47.057Z,24.97
2022-08-19T05:17:34.965Z,26.67
2022-08-19T05:20:20.887Z,24.97
2022-08-19T05:22:48.331Z,25.83
2022-08-19T05:25:20.257Z,26.47
2022-08-19T05:27:47.775Z,28.03
2022-08-19T05:30:15.072Z,29.37
2022-08-19T05:32:42.305Z,29.50
2022-08-19T05:35:09.583Z,30.47
2022-08-19T05:37:36.802Z,27.83
2022-08-19T05:40:05.147Z,28.63
2022-08-19T05:42:32.559Z,26.83
2022-08-19T05:44:59.911Z,26.03
2022-08-19T05:47:27.625Z,26.07
2022-08-19T05:49:54.865Z,26.83
2022-08-19T05:52:25.758Z,28.43
2022-08-19T05:54:56.125Z,26.13
2022-08-19T05:57:24.447Z,28.77
2022-08-19T05:59:52.878Z,27.97
2022-08-19T06:02:26.162Z,25.10
2022-08-19T06:04:53.571Z,25.65
2022-08-19T06:07:20.754Z,26.87
2022-08-19T06:09:59.036Z,27.43
2022-08-19T06:12:32.772Z,29.30
2022-08-19T06:15:02.067Z,27.00
2022-08-19T06:17:32.743Z,26.38
2022-08-19T06:20:00.289Z,27.30
2022-08-19T06:22:28.182Z,26.83
2022-08-19T06:24:56.376Z,25.88
2022-08-19T06:27:24.062Z,27.60
2022-08-19T06:29:51.334Z,28.23
2022-08-19T06:32:19.650Z,28.80
2022-08-19T06:34:47.417Z,26.93
2022-08-19T06:37:14.710Z,27.48
2022-08-19T06:39:43.233Z,27.77
2022-08-19T06:42:14.042Z,26.42
2022-08-19T06:44:43.249Z,27.50
2022-08-19T06:47:14.556Z,25.42
2022-08-19T06:49:42.581Z,23.65
2022-08-19T06:52:10.175Z,25.05
2022-08-19T06:54:46.580Z,20.67
2022-08-19T06:57:24.031Z,21.48
2022-08-19T06:59:51.395Z,22.45
2022-08-19T07:04:52.688Z,20.58
2022-08-19T07:07:21.468Z,20.00
2022-08-19T07:09:57.990Z,20.67
2022-08-19T07:12:30.399Z,20.73
2022-08-19T07:14:59.065Z,19.92
2022-08-19T07:17:26.520Z,19.30
2022-08-19T07:19:54.170Z,20.27
2022-08-19T07:22:23.684Z,20.23
2022-08-19T07:24:51.750Z,19.83
2022-08-19T07:27:24.748Z,19.30
2022-08-19T07:29:57.585Z,18.65
2022-08-19T07:32:31.418Z,19.42
2022-08-19T07:35:01.764Z,20.20
2022-08-19T07:37:32.992Z,18.70
2022-08-19T07:40:01.686Z,19.73
2022-08-19T07:42:30.989Z,19.23
2022-08-19T07:44:59.323Z,18.95
2022-08-19T07:47:49.428Z,21.27
2022-08-19T07:50:14.442Z,20.20
2022-08-19T07:52:41.869Z,19.33
2022-08-19T07:55:40.642Z,19.27
2022-08-19T07:57:57.204Z,19.23
2022-08-19T08:00:24.907Z,20.60
2022-08-19T08:02:55.553Z,21.45
2022-08-19T08:05:43.870Z,21.23
2022-08-19T08:08:30.967Z,21.23
2022-08-19T08:11:00.129Z,20.77
2022-08-19T08:13:28.157Z,20.00
2022-08-19T08:15:56.842Z,20.38
2022-08-19T08:18:27.663Z,20.95
2022-08-19T08:20:56.299Z,21.05
2022-08-19T08:23:25.964Z,20.33
2022-08-19T08:25:54.598Z,20.55
2022-08-19T08:28:22.162Z,22.25
2022-08-19T08:30:50.586Z,20.63
2022-08-19T08:33:30.087Z,20.35
2022-08-19T08:36:04.155Z,20.27
2022-08-19T08:38:38.960Z,20.85
2022-08-19T08:41:12.378Z,20.38
2022-08-19T08:43:44.707Z,21.52
2022-08-19T08:46:34.236Z,21.00
2022-08-19T08:49:03.048Z,20.83
2022-08-19T08:51:35.196Z,20.60
2022-08-19T08:54:04.865Z,20.48
2022-08-19T08:56:32.655Z,19.35
2022-08-19T08:59:08.957Z,19.00
2022-08-19T09:01:37.370Z,19.55
2022-08-19T09:04:06.698Z,19.58
2022-08-19T09:07:18.688Z,18.00
2022-08-19T09:10:12.760Z,17.15
2022-08-19T09:13:09.747Z,18.05
2022-08-19T09:15:41.545Z,19.13
2022-08-19T09:18:08.819Z,17.90
2022-08-19T09:20:43.075Z,17.88
2022-08-19T09:23:11.936Z,15.98
2022-08-19T09:25:41.169Z,17.95
2022-08-19T09:28:15.180Z,15.98
2022-08-19T09:30:49.623Z,15.75
2022-08-19T09:33:21.131Z,15.45
2022-08-19T09:35:53.031Z,13.35
2022-08-19T09:38:21.801Z,15.48
2022-08-19T09:40:50.167Z,14.10
2022-08-19T09:43:33.801Z,14.10
2022-08-19T09:46:07.313Z,14.35
2022-08-19T09:48:34.865Z,16.70
2022-08-19T09:51:25.338Z,16.30
2022-08-19T09:53:54.668Z,15.43
2022-08-19T09:56:23.042Z,16.20
2022-08-19T09:58:51.954Z,17.17
2022-08-19T10:01:22.998Z,16.13
2022-08-19T10:03:58.034Z,17.25
2022-08-19T10:06:46.894Z,15.35
2022-08-19T10:09:14.037Z,15.75
2022-08-19T10:11:46.983Z,15.48
2022-08-19T10:14:23.569Z,15.00
2022-08-19T10:16:51.819Z,13.60
2022-08-19T10:19:25.692Z,13.30
2022-08-19T10:21:54.461Z,13.00
2022-08-19T10:24:28.942Z,12.75
2022-08-19T10:26:58.950Z,13.00
2022-08-19T10:29:31.892Z,12.10
2022-08-19T10:32:04.645Z,11.90
2022-08-19T10:34:37.703Z,12.93
2022-08-19T10:37:16.228Z,12.88
2022-08-19T10:39:51.399Z,11.55
2022-08-19T10:42:19.709Z,12.43
2022-08-19T10:44:47.907Z,13.27
2022-08-19T10:47:21.982Z,13.52
2022-08-19T10:50:11.701Z,13.15
2022-08-19T10:52:49.811Z,13.18
2022-08-19T10:55:38.374Z,12.93
2022-08-19T10:58:06.040Z,22.08
2022-08-19T11:00:33.880Z,14.20
2022-08-19T11:03:01.149Z,14.15
2022-08-19T11:05:28.475Z,13.30
2022-08-19T11:07:56.706Z,13.95
2022-08-19T11:10:24.623Z,11.13
2022-08-19T11:12:55.382Z,11.70
2022-08-19T11:15:22.844Z,11.98
2022-08-19T11:17:50.556Z,12.52
2022-08-19T11:20:18.027Z,11.02
2022-08-19T11:22:45.515Z,11.55
2022-08-19T11:25:15.028Z,11.98
2022-08-19T11:27:43.886Z,12.55
2022-08-19T11:30:12.884Z,12.82
2022-08-19T11:32:44.683Z,11.20
2022-08-19T11:35:17.061Z,10.70
2022-08-19T11:37:44.428Z,10.55
2022-08-19T11:40:12.431Z,11.25
2022-08-19T11:42:58.122Z,9.95
2022-08-19T11:45:26.098Z,10.43
2022-08-19T11:47:53.858Z,11.52
2022-08-19T11:50:21.308Z,10.80
2022-08-19T11:52:48.630Z,10.15
2022-08-19T11:55:15.914Z,11.02
2022-08-19T11:57:44.791Z,10.70
2022-08-19T12:00:14.085Z,11.20
2022-08-19T12:02:41.721Z,10.68
2022-08-19T12:05:12.585Z,11.15
2022-08-19T12:07:41.994Z,11.70
2022-08-19T12:10:09.552Z,10.82
2022-08-19T12:12:41.556Z,10.18
2022-08-19T12:15:09.998Z,9.73
2022-08-19T12:17:37.449Z,10.32
2022-08-19T12:20:06.559Z,11.13
2022-08-19T12:22:33.828Z,10.65
2022-08-19T12:25:01.936Z,9.75
2022-08-19T12:27:40.417Z,10.98
2022-08-19T12:30:11.040Z,11.10
2022-08-19T12:32:38.488Z,10.32
2022-08-19T12:35:06.450Z,10.52
2022-08-19T12:37:33.782Z,10.63
2022-08-19T12:40:01.263Z,11.95
2022-08-19T12:42:28.525Z,10.88
2022-08-19T12:44:56.084Z,12.02
2022-08-19T12:47:23.920Z,11.35
2022-08-19T12:49:55.475Z,12.20
2022-08-19T12:52:25.124Z,11.25
2022-08-19T12:54:54.402Z,9.90
2022-08-19T12:57:24.442Z,10.15
2022-08-19T12:59:58.887Z,10.05
2022-08-19T13:02:26.088Z,9.48
2022-08-19T13:04:53.434Z,9.07
2022-08-19T13:07:20.475Z,9.70
2022-08-19T13:09:48.024Z,9.50
2022-08-19T13:12:15.376Z,9.05
2022-08-19T13:14:43.119Z,8.02
2022-08-19T13:17:10.269Z,8.20
2022-08-19T13:19:38.264Z,8.73
2022-08-19T13:22:13.265Z,9.00
2022-08-19T13:24:46.865Z,9.40
2022-08-19T13:27:14.663Z,9.35
2022-08-19T13:30:03.524Z,9.10
2022-08-19T13:32:49.797Z,8.60
2022-08-19T13:35:17.824Z,9.82
2022-08-19T13:37:46.429Z,9.45
2022-08-19T13:40:18.122Z,9.65
2022-08-19T13:42:48.483Z,8.70
2022-08-19T13:45:17.678Z,8.77
2022-08-19T13:47:49.818Z,9.23
2022-08-19T13:50:19.114Z,9.50
2022-08-19T13:52:46.553Z,9.48
2022-08-19T13:55:13.913Z,9.45
2022-08-19T13:57:43.229Z,11.57
2022-08-19T14:00:16.448Z,10.02
2022-08-19T14:02:44.234Z,9.48
2022-08-19T14:05:12.450Z,9.70
2022-08-19T14:07:39.897Z,9.10
2022-08-19T14:10:08.286Z,8.95
2022-08-19T14:12:35.639Z,8.57
2022-08-19T14:15:04.292Z,9.02
2022-08-19T14:17:31.547Z,9.02
2022-08-19T14:20:10.903Z,9.05
2022-08-19T14:22:39.579Z,8.35
2022-08-19T14:25:08.692Z,8.75
2022-08-19T14:27:36.730Z,8.38
2022-08-19T14:30:07.975Z,9.07
2022-08-19T14:32:35.480Z,8.23
2022-08-19T14:35:06.041Z,8.98
2022-08-19T14:37:33.911Z,8.50
2022-08-19T14:40:10.325Z,8.30
2022-08-19T14:42:37.680Z,7.82
2022-08-19T14:45:06.475Z,7.45
2022-08-19T14:47:33.771Z,7.82
2022-08-19T14:50:01.055Z,7.85
2022-08-19T14:52:34.549Z,8.40
2022-08-19T14:55:02.431Z,8.80
2022-08-19T14:57:34.927Z,8.35
2022-08-19T15:00:02.350Z,8.82
2022-08-19T15:02:34.758Z,8.30
2022-08-19T15:05:03.162Z,8.57
2022-08-19T15:07:30.604Z,8.75
2022-08-19T15:09:58.307Z,8.63
2022-08-19T15:12:25.785Z,8.05
2022-08-19T15:14:55.971Z,8.30
2022-08-19T15:17:43.427Z,8.75
2022-08-19T15:20:13.621Z,9.05
2022-08-19T15:22:41.499Z,9.10
2022-08-19T15:25:09.463Z,9.25
2022-08-19T15:27:40.780Z,8.85
2022-08-19T15:30:11.517Z,8.40
2022-08-19T15:32:39.236Z,9.15
2022-08-19T15:35:07.458Z,8.38
2022-08-19T15:37:37.227Z,9.05
2022-08-19T15:40:05.979Z,8.73
2022-08-19T15:42:33.821Z,8.45
2022-08-19T15:45:02.639Z,9.13
2022-08-19T15:47:34.542Z,9.38
2022-08-19T15:50:13.462Z,8.57
2022-08-19T15:52:52.100Z,5.72
2022-08-19T15:55:33.501Z,3.83
2022-08-19T15:58:29.059Z,3.67
2022-08-19T16:01:24.440Z,2.85
2022-08-19T16:04:14.916Z,2.50
2022-08-19T16:06:49.033Z,3.08
2022-08-19T16:09:17.127Z,2.78
2022-08-19T16:11:46.424Z,2.70
2022-08-19T16:14:15.426Z,2.47
2022-08-19T16:16:42.789Z,2.45
2022-08-19T16:19:12.022Z,4.05
2022-08-19T16:21:40.450Z,2.22
2022-08-19T16:24:10.912Z,2.15
2022-08-19T16:26:38.568Z,2.35
2022-08-19T16:29:08.773Z,2.45
2022-08-19T16:31:39.589Z,2.08
2022-08-19T16:34:07.021Z,2.10
2022-08-19T16:36:34.370Z,2.10
2022-08-19T16:39:01.798Z,2.33
2022-08-19T16:41:29.323Z,2.67
2022-08-19T16:43:56.626Z,2.35
2022-08-19T16:46:24.632Z,1.80
2022-08-19T16:48:54.747Z,2.67
2022-08-19T16:51:23.041Z,2.30
2022-08-19T16:53:52.541Z,2.00
2022-08-19T16:56:20.665Z,2.70
2022-08-19T16:58:50.334Z,1.88
2022-08-19T17:01:18.093Z,2.55
2022-08-19T17:03:45.459Z,2.85
2022-08-19T17:06:16.211Z,2.40
2022-08-19T17:08:48.696Z,3.45
2022-08-19T17:11:18.931Z,2.08
2022-08-19T17:13:47.930Z,2.88
2022-08-19T17:16:17.618Z,2.47
2022-08-19T17:18:44.975Z,2.13
2022-08-19T17:21:13.362Z,2.10
2022-08-19T17:23:43.617Z,2.40
2022-08-19T17:26:18.129Z,2.30
2022-08-19T17:28:48.834Z,1.75
2022-08-19T17:31:16.189Z,2.00
2022-08-19T17:33:48.447Z,2.10
2022-08-19T17:36:21.553Z,1.90
2022-08-19T17:38:49.251Z,1.97
2022-08-19T17:41:16.851Z,2.27
2022-08-19T17:43:44.318Z,1.88
2022-08-19T17:46:17.587Z,3.50
2022-08-19T17:48:51.837Z,2.00
2022-08-19T17:51:40.746Z,2.20
2022-08-19T17:54:11.012Z,1.95
2022-08-19T17:56:38.394Z,10.18
2022-08-19T17:59:06.267Z,2.47
2022-08-19T18:01:52.029Z,1.95
2022-08-19T18:04:22.880Z,2.53
2022-08-19T18:06:53.711Z,2.03
2022-08-19T18:09:38.655Z,2.22
2022-08-19T18:12:09.736Z,2.20
2022-08-19T18:14:38.054Z,2.07
2022-08-19T18:17:11.126Z,2.30
2022-08-19T18:19:41.640Z,1.73
2022-08-19T18:22:17.391Z,1.97
2022-08-19T18:24:45.880Z,2.60
2022-08-19T18:27:13.433Z,2.40
2022-08-19T18:29:40.690Z,2.10
2022-08-19T18:32:13.838Z,2.25
2022-08-19T18:34:44.222Z,2.20
2022-08-19T18:37:11.761Z,1.80
2022-08-19T18:39:57.735Z,2.03
2022-08-19T18:42:43.432Z,2.00
2022-08-19T18:45:29.085Z,2.13
2022-08-19T18:48:26.876Z,1.90
2022-08-19T18:50:59.209Z,1.97
2022-08-19T18:53:30.818Z,2.10
2022-08-19T18:55:58.241Z,2.00
2022-08-19T18:58:34.261Z,2.00
2022-08-19T19:01:22.992Z,3.20
2022-08-19T19:03:52.926Z,2.70
2022-08-19T19:06:24.195Z,3.13
2022-08-19T19:08:53.184Z,3.53
2022-08-19T19:11:26.270Z,3.97
2022-08-19T19:13:53.422Z,3.87
2022-08-19T19:16:24.448Z,4.40
2022-08-19T19:18:52.988Z,4.87
2022-08-19T19:21:21.284Z,4.37
2022-08-19T19:23:48.752Z,4.50
2022-08-19T19:26:16.142Z,5.03
2022-08-19T19:28:45.956Z,5.03
2022-08-19T19:31:22.863Z,4.87
2022-08-19T19:33:50.214Z,5.70
2022-08-19T19:36:17.707Z,5.33
2022-08-19T19:38:48.544Z,5.43
2022-08-19T19:41:17.802Z,6.33
2022-08-19T19:43:45.038Z,5.87
2022-08-19T19:46:12.680Z,6.20
2022-08-19T19:48:39.902Z,5.73
2022-08-19T19:51:07.066Z,6.27
2022-08-19T19:53:34.334Z,7.27
2022-08-19T19:56:02.715Z,6.23
2022-08-19T19:58:30.502Z,5.93
2022-08-19T20:00:58.878Z,5.53
2022-08-19T20:03:26.757Z,5.73
2022-08-19T20:05:54.895Z,5.60
2022-08-19T20:08:40.718Z,5.27
2022-08-19T20:11:07.993Z,6.00
2022-08-19T20:13:35.357Z,5.67
2022-08-19T20:16:06.083Z,5.70
2022-08-19T20:18:33.566Z,5.93
2022-08-19T20:21:00.861Z,6.07
2022-08-19T20:23:28.148Z,5.80
2022-08-19T20:25:55.872Z,6.47
2022-08-19T20:28:24.167Z,6.00
2022-08-19T20:30:53.206Z,5.37
2022-08-19T20:33:20.412Z,6.33
2022-08-19T20:35:47.696Z,6.17
2022-08-19T20:38:14.826Z,6.20
2022-08-19T20:40:42.198Z,6.57
2022-08-19T20:43:13.382Z,6.23
2022-08-19T20:45:40.589Z,6.67
2022-08-19T20:48:08.230Z,6.97
2022-08-19T20:50:35.918Z,7.10
2022-08-19T20:53:10.677Z,6.60
2022-08-19T20:55:38.463Z,7.60
2022-08-19T20:58:05.837Z,6.63
2022-08-19T21:00:33.699Z,7.60
2022-08-19T21:03:01.029Z,7.60
2022-08-19T21:05:30.545Z,6.60
2022-08-19T21:07:58.688Z,7.40
2022-08-19T21:10:26.516Z,7.40
2022-08-19T21:12:53.836Z,7.03
2022-08-19T21:15:20.996Z,7.93
2022-08-19T21:17:48.872Z,9.20
2022-08-19T21:20:16.134Z,9.10
2022-08-19T21:22:43.366Z,9.55
2022-08-19T21:25:11.033Z,11.40
2022-08-19T21:27:38.422Z,9.87
2022-08-19T21:30:06.223Z,11.77
2022-08-19T21:32:33.624Z,11.50
2022-08-19T21:35:02.228Z,11.70
2022-08-19T21:37:29.762Z,12.13
2022-08-19T21:39:56.940Z,12.63
2022-08-19T21:42:24.497Z,13.50
2022-08-19T21:44:51.820Z,13.77
2022-08-19T21:47:18.972Z,15.73
2022-08-19T21:49:46.395Z,15.10
2022-08-19T21:52:13.768Z,14.73
2022-08-19T21:54:41.128Z,14.33
2022-08-19T21:57:10.507Z,15.13
2022-08-19T21:59:44.193Z,14.13
2022-08-19T22:02:21.061Z,14.23
2022-08-19T22:04:49.527Z,14.68
2022-08-19T22:07:16.934Z,14.03
2022-08-19T22:09:44.889Z,14.70
2022-08-19T22:12:24.102Z,15.47
2022-08-19T22:14:51.872Z,16.17
2022-08-19T22:17:19.757Z,16.30
2022-08-19T22:19:47.132Z,16.63
2022-08-19T22:22:19.400Z,15.52
2022-08-19T22:24:46.685Z,15.93
2022-08-19T22:27:14.027Z,16.13
2022-08-19T22:29:41.285Z,16.73
2022-08-19T22:32:26.360Z,15.97
2022-08-19T22:34:56.820Z,15.97
2022-08-19T22:37:24.171Z,14.97
2022-08-19T22:39:51.367Z,15.90
2022-08-19T22:42:20.280Z,14.93
2022-08-19T22:44:47.561Z,14.57
2022-08-19T22:47:14.840Z,14.63
2022-08-19T22:49:42.061Z,13.13
2022-08-19T22:52:17.873Z,16.80
2022-08-19T22:54:49.784Z,16.03
2022-08-19T22:57:19.583Z,15.97
2022-08-19T22:59:50.761Z,15.63
2022-08-19T23:02:23.486Z,14.53
2022-08-19T23:04:51.324Z,14.87
2022-08-19T23:07:18.896Z,14.40
2022-08-19T23:09:50.888Z,13.87
2022-08-19T23:12:30.727Z,13.27
2022-08-19T23:15:07.161Z,12.43
2022-08-19T23:17:35.456Z,12.23
2022-08-19T23:20:03.256Z,11.30
2022-08-19T23:22:30.726Z,10.90
2022-08-19T23:25:05.709Z,11.70
2022-08-19T23:27:51.578Z,11.47
2022-08-19T23:30:27.837Z,11.47
2022-08-19T23:32:59.656Z,9.63
2022-08-19T23:35:27.267Z,10.07
2022-08-19T23:37:54.716Z,10.50
2022-08-19T23:40:22.498Z,9.17
2022-08-19T23:42:51.652Z,9.70
2022-08-19T23:45:23.696Z,9.50
2022-08-19T23:47:53.276Z,8.90
2022-08-19T23:50:21.517Z,9.37
2022-08-19T23:52:53.676Z,8.50
2022-08-19T23:55:22.620Z,9.60
2022-08-19T23:57:49.841Z,8.77
